createdAt,value
2023-05-05T00:00:43.532Z,101613.38
2023-05-05T00:05:47.610Z,101594.97
2023-05-05T00:10:52.508Z,101589.34
2023-05-05T00:15:55.599Z,101577.19
2023-05-05T00:20:58.670Z,101583.94
2023-05-05T00:26:01.717Z,101577.78
2023-05-05T00:31:04.822Z,101602.75
2023-05-05T00:36:08.161Z,101600.34
2023-05-05T00:41:11.440Z,101583.25
2023-05-05T00:46:25.605Z,101600.72
2023-05-05T00:51:29.406Z,101596.41
2023-05-05T00:56:32.401Z,101560.75
2023-05-05T01:01:35.477Z,101578.41
2023-05-05T01:06:52.801Z,101602.38
2023-05-05T01:12:10.514Z,101604.44
2023-05-05T01:17:24.816Z,101594.38
2023-05-05T01:22:35.257Z,101597.66
2023-05-05T01:27:59.810Z,101610.28
2023-05-05T01:33:08.845Z,101580.53
2023-05-05T01:38:22.020Z,101613.44
2023-05-05T01:43:28.569Z,101614.19
2023-05-05T01:48:33.706Z,101599.44
2023-05-05T01:53:37.383Z,101619.16
2023-05-05T01:58:42.977Z,101593.88
2023-05-05T02:03:47.735Z,101634.53
2023-05-05T02:08:53.179Z,101610.59
2023-05-05T02:13:56.659Z,101637.78
2023-05-05T02:19:05.875Z,101644.78
2023-05-05T02:24:09.394Z,101620.19
2023-05-05T02:29:22.964Z,101639.47
2023-05-05T02:34:27.780Z,101632.25
2023-05-05T02:39:37.285Z,101631.09
2023-05-05T02:44:47.374Z,101632.69
2023-05-05T02:49:51.908Z,101618.00
2023-05-05T02:54:55.005Z,101628.78
2023-05-05T03:00:09.902Z,101623.38
2023-05-05T03:05:28.675Z,101636.09
2023-05-05T03:10:40.568Z,101639.69
2023-05-05T03:15:49.874Z,101625.78
2023-05-05T03:20:56.178Z,101623.66
2023-05-05T03:25:59.287Z,101643.06
2023-05-05T03:31:13.108Z,101637.19
2023-05-05T03:36:16.486Z,101651.13
2023-05-05T03:41:23.976Z,101628.06
2023-05-05T03:46:28.200Z,101644.53
2023-05-05T03:51:31.530Z,101642.75
2023-05-05T03:56:35.532Z,101630.31
2023-05-05T04:01:38.566Z,101614.34
2023-05-05T04:06:41.555Z,101641.97
2023-05-05T04:11:45.021Z,101653.03
2023-05-05T04:16:48.194Z,101652.13
2023-05-05T04:21:52.329Z,101645.81
2023-05-05T04:26:55.858Z,101659.03
2023-05-05T04:31:59.048Z,101656.69
2023-05-05T04:37:02.073Z,101648.72
2023-05-05T04:42:06.887Z,101655.50
2023-05-05T04:47:11.479Z,101638.34
2023-05-05T04:52:17.073Z,101645.16
2023-05-05T04:57:20.034Z,101645.16
2023-05-05T05:02:23.257Z,101646.91
2023-05-05T05:07:26.700Z,101633.44
2023-05-05T05:12:29.691Z,101644.50
2023-05-05T05:17:32.688Z,101639.63
2023-05-05T05:22:39.043Z,101629.53
2023-05-05T05:27:50.099Z,101643.06
2023-05-05T05:32:59.058Z,101621.13
2023-05-05T05:38:02.274Z,101633.06
2023-05-05T05:43:06.072Z,101641.44
2023-05-05T05:48:10.757Z,101639.50
2023-05-05T05:53:13.922Z,101641.91
2023-05-05T05:58:17.593Z,101636.56
2023-05-05T06:03:21.714Z,101634.97
2023-05-05T06:08:25.212Z,101634.03
2023-05-05T06:13:30.025Z,101634.81
2023-05-05T06:18:33.181Z,101638.00
2023-05-05T06:23:36.439Z,101640.13
2023-05-05T06:28:42.622Z,101628.50
2023-05-05T06:33:45.634Z,101604.28
2023-05-05T06:38:48.608Z,101617.59
2023-05-05T06:43:51.541Z,101606.84
2023-05-05T06:48:54.574Z,101609.25
2023-05-05T06:53:57.607Z,101599.25
2023-05-05T06:59:00.531Z,101598.97
2023-05-05T07:04:03.565Z,101610.06
2023-05-05T07:09:06.996Z,101607.69
2023-05-05T07:14:09.954Z,101619.78
2023-05-05T07:19:12.958Z,101619.34
2023-05-05T07:24:16.079Z,101608.13
2023-05-05T07:29:19.070Z,101599.41
2023-05-05T07:34:22.116Z,101616.66
2023-05-05T07:39:25.190Z,101609.78
2023-05-05T07:44:28.385Z,101581.72
2023-05-05T07:49:31.373Z,101584.31
2023-05-05T07:54:34.384Z,101582.78
2023-05-05T07:59:38.827Z,101604.69
2023-05-05T08:04:42.829Z,101585.25
2023-05-05T08:09:46.170Z,101607.50
2023-05-05T08:14:49.179Z,101583.97
2023-05-05T08:19:53.482Z,101570.66
2023-05-05T08:24:56.426Z,101579.34
2023-05-05T08:29:59.357Z,101581.91
2023-05-05T08:35:03.937Z,101572.78
2023-05-05T08:40:08.203Z,101582.63
2023-05-05T08:45:12.334Z,101563.06
2023-05-05T08:50:19.898Z,101560.88
2023-05-05T08:55:29.841Z,101565.34
2023-05-05T09:00:34.191Z,101558.44
2023-05-05T09:05:37.663Z,101565.88
2023-05-05T09:10:44.978Z,101565.41
2023-05-05T09:15:48.109Z,101555.34
2023-05-05T09:20:51.299Z,101573.38
2023-05-05T09:26:05.509Z,101534.03
2023-05-05T09:31:16.534Z,101548.81
2023-05-05T09:36:19.707Z,101535.50
2023-05-05T09:41:38.109Z,101534.00
2023-05-05T09:46:51.553Z,101531.75
2023-05-05T09:51:55.789Z,101521.53
2023-05-05T09:56:58.808Z,101530.16
2023-05-05T10:02:14.095Z,101513.69
2023-05-05T10:07:24.963Z,101505.81
2023-05-05T10:12:30.169Z,101491.44
2023-05-05T10:17:37.105Z,101464.41
2023-05-05T10:22:45.765Z,101503.16
2023-05-05T10:27:54.118Z,101477.19
2023-05-05T10:38:32.447Z,101482.81
2023-05-05T10:43:36.935Z,101483.19
2023-05-05T10:49:03.139Z,101492.88
2023-05-05T10:54:12.912Z,101476.56
2023-05-05T10:59:37.489Z,101473.84
2023-05-05T11:04:41.365Z,101451.88
2023-05-05T11:10:03.921Z,101454.72
2023-05-05T11:15:26.728Z,101444.16
2023-05-05T11:20:36.251Z,101431.75
2023-05-05T11:25:42.400Z,101439.63
2023-05-05T11:30:58.113Z,101441.94
2023-05-05T11:36:14.001Z,101424.06
2023-05-05T11:41:43.105Z,101428.06
2023-05-05T11:46:51.898Z,101422.66
2023-05-05T11:52:08.985Z,101410.38
2023-05-05T11:57:11.985Z,101381.41
2023-05-05T12:02:19.044Z,101390.47
2023-05-05T12:07:25.677Z,101382.09
2023-05-05T12:12:36.643Z,101386.81
2023-05-05T12:17:44.066Z,101397.97
2023-05-05T12:22:47.411Z,101366.41
2023-05-05T12:27:53.704Z,101386.06
2023-05-05T12:33:07.639Z,101380.81
2023-05-05T12:38:10.779Z,101380.56
2023-05-05T12:43:33.091Z,101378.75
2023-05-05T12:48:38.466Z,101364.38
2023-05-05T12:53:46.149Z,101366.09
2023-05-05T12:58:49.300Z,101344.75
2023-05-05T13:04:25.337Z,101355.94
2023-05-05T13:09:34.233Z,101353.94
2023-05-05T13:14:37.280Z,101331.78
2023-05-05T13:19:46.745Z,101325.53
2023-05-05T13:24:52.652Z,101335.56
2023-05-05T13:29:56.413Z,101341.44
2023-05-05T13:34:59.388Z,101335.78
2023-05-05T13:40:02.594Z,101338.28
2023-05-05T13:45:06.958Z,101332.25
2023-05-05T13:50:10.595Z,101348.56
2023-05-05T13:55:13.895Z,101345.75
2023-05-05T14:00:17.564Z,101328.72
2023-05-05T14:05:21.295Z,101345.63
2023-05-05T14:10:26.490Z,101333.06
2023-05-05T14:15:32.725Z,101340.03
2023-05-05T14:20:35.944Z,101311.59
2023-05-05T14:25:39.207Z,101342.91
2023-05-05T14:30:42.367Z,101324.38
2023-05-05T14:35:45.423Z,101342.53
2023-05-05T14:40:48.353Z,101347.66
2023-05-05T14:45:52.730Z,101341.53
2023-05-05T14:50:55.990Z,101322.28
2023-05-05T14:55:59.027Z,101326.94
2023-05-05T15:01:02.027Z,101334.34
2023-05-05T15:06:05.915Z,101319.69
2023-05-05T15:11:08.980Z,101338.84
2023-05-05T15:16:12.149Z,101344.47
2023-05-05T15:21:15.183Z,101334.28
2023-05-05T15:26:18.220Z,101346.56
2023-05-05T15:31:21.311Z,101349.03
2023-05-05T15:36:24.990Z,101363.88
2023-05-05T15:41:29.639Z,101351.13
2023-05-05T15:46:35.868Z,101365.50
2023-05-05T15:51:39.001Z,101352.56
2023-05-05T15:56:41.945Z,101343.03
2023-05-05T16:01:45.006Z,101347.00
2023-05-05T16:06:48.083Z,101335.13
2023-05-05T16:11:53.778Z,101341.63
2023-05-05T16:16:57.201Z,101357.16
2023-05-05T16:22:00.239Z,101344.72
2023-05-05T16:27:03.378Z,101344.81
2023-05-05T16:32:06.444Z,101342.59
2023-05-05T16:37:09.621Z,101319.78
2023-05-05T16:42:13.505Z,101345.28
2023-05-05T16:47:16.549Z,101338.41
2023-05-05T16:52:19.576Z,101335.44
2023-05-05T16:57:23.362Z,101319.66
2023-05-05T17:02:26.603Z,101307.16
2023-05-05T17:07:29.701Z,101300.06
2023-05-05T17:12:32.787Z,101320.03
2023-05-05T17:17:35.966Z,101324.81
2023-05-05T17:22:39.016Z,101300.53
2023-05-05T17:27:42.361Z,101308.75
2023-05-05T17:32:45.432Z,101297.88
2023-05-05T17:37:48.482Z,101320.44
2023-05-05T17:42:51.632Z,101299.13
2023-05-05T17:47:54.756Z,101316.78
2023-05-05T17:52:57.883Z,101317.75
2023-05-05T17:58:01.479Z,101303.88
2023-05-05T18:03:05.185Z,101296.41
2023-05-05T18:08:08.334Z,101311.25
2023-05-05T18:13:11.468Z,101314.09
2023-05-05T18:18:14.620Z,101314.69
2023-05-05T18:23:17.729Z,101298.16
2023-05-05T18:28:21.470Z,101303.88
2023-05-05T18:33:24.453Z,101282.06
2023-05-05T18:38:27.598Z,101295.78
2023-05-05T18:43:30.941Z,101276.03
2023-05-05T18:48:34.018Z,101286.38
2023-05-05T18:53:37.132Z,101263.91
2023-05-05T18:58:40.145Z,101268.41
2023-05-05T19:03:48.146Z,101261.47
2023-05-05T19:08:51.298Z,101277.94
2023-05-05T19:13:55.463Z,101272.00
2023-05-05T19:19:00.385Z,101251.22
2023-05-05T19:24:03.482Z,101262.78
2023-05-05T19:29:06.452Z,101260.28
2023-05-05T19:34:09.506Z,101239.88
2023-05-05T19:39:13.802Z,101224.59
2023-05-05T19:44:18.802Z,101234.63
2023-05-05T19:49:21.797Z,101237.28
2023-05-05T19:54:25.996Z,101235.94
2023-05-05T19:59:29.138Z,101224.91
2023-05-05T20:04:32.155Z,101224.22
2023-05-05T20:09:35.206Z,101237.25
2023-05-05T20:14:38.272Z,101238.63
2023-05-05T20:19:41.619Z,101211.63
2023-05-05T20:24:44.628Z,101221.47
2023-05-05T20:29:48.534Z,101227.06
2023-05-05T20:34:51.568Z,101205.88
2023-05-05T20:39:54.877Z,101208.63
2023-05-05T20:44:57.847Z,101200.44
2023-05-05T20:50:00.987Z,101184.00
2023-05-05T20:55:04.793Z,101213.75
2023-05-05T21:00:09.612Z,101209.81
2023-05-05T21:05:12.932Z,101213.78
2023-05-05T21:10:15.975Z,101196.59
2023-05-05T21:15:19.020Z,101190.50
2023-05-05T21:20:22.269Z,101192.53
2023-05-05T21:25:25.697Z,101200.19
2023-05-05T21:30:28.818Z,101163.97
2023-05-05T21:35:31.928Z,101187.47
2023-05-05T21:40:35.022Z,101180.88
2023-05-05T21:45:38.025Z,101180.13
2023-05-05T21:50:42.320Z,101181.16
2023-05-05T21:55:45.541Z,101167.13
2023-05-05T22:00:51.787Z,101177.75
2023-05-05T22:05:54.903Z,101161.84
2023-05-05T22:10:58.076Z,101167.88
2023-05-05T22:16:01.215Z,101171.56
2023-05-05T22:21:04.632Z,101177.00
2023-05-05T22:26:08.470Z,101174.03
2023-05-05T22:31:11.855Z,101141.47
2023-05-05T22:36:15.387Z,101161.63
2023-05-05T22:41:18.415Z,101161.75
2023-05-05T22:46:21.470Z,101151.47
2023-05-05T22:51:24.576Z,101155.66
2023-05-05T22:56:27.629Z,101146.47
2023-05-05T23:01:30.988Z,101147.59
2023-05-05T23:06:34.071Z,101132.25
2023-05-05T23:11:37.083Z,101153.94
2023-05-05T23:16:40.165Z,101141.41
2023-05-05T23:21:52.616Z,101153.78
2023-05-05T23:26:59.851Z,101154.03
2023-05-05T23:32:02.860Z,101156.06
2023-05-05T23:37:06.431Z,101155.13
2023-05-05T23:42:09.657Z,101148.19
2023-05-05T23:47:12.707Z,101158.78
2023-05-05T23:52:15.759Z,101146.59
2023-05-05T23:57:18.800Z,101147.78
